sensor_id;sensor_type;location;lat;lon;timestamp;P1;durP1;ratioP1;P2;durP2;ratioP2
10341;SDS011;5216;54.602;18.356;2022-09-27T00:00:28;12.20;;;10.30;;
10341;SDS011;5216;54.602;18.356;2022-09-27T00:02:55;14.60;;;10.23;;
10341;SDS011;5216;54.602;18.356;2022-09-27T00:05:21;12.73;;;10.23;;
10341;SDS011;5216;54.602;18.356;2022-09-27T00:07:48;13.43;;;9.67;;
10341;SDS011;5216;54.602;18.356;2022-09-27T00:10:14;14.30;;;9.80;;
10341;SDS011;5216;54.602;18.356;2022-09-27T00:12:41;10.80;;;9.43;;
10341;SDS011;5216;54.602;18.356;2022-09-27T00:15:08;10.77;;;8.20;;
10341;SDS011;5216;54.602;18.356;2022-09-27T00:17:35;12.57;;;10.27;;
10341;SDS011;5216;54.602;18.356;2022-09-27T00:20:03;14.33;;;10.67;;
10341;SDS011;5216;54.602;18.356;2022-09-27T00:22:29;13.27;;;10.33;;
10341;SDS011;5216;54.602;18.356;2022-09-27T00:24:56;11.27;;;9.70;;
10341;SDS011;5216;54.602;18.356;2022-09-27T00:27:24;11.77;;;9.93;;
10341;SDS011;5216;54.602;18.356;2022-09-27T00:29:54;12.37;;;9.90;;
10341;SDS011;5216;54.602;18.356;2022-09-27T00:32:21;10.97;;;9.60;;
10341;SDS011;5216;54.602;18.356;2022-09-27T00:34:47;13.67;;;10.37;;
10341;SDS011;5216;54.602;18.356;2022-09-27T00:37:14;11.00;;;9.90;;
10341;SDS011;5216;54.602;18.356;2022-09-27T00:39:40;11.27;;;10.10;;
10341;SDS011;5216;54.602;18.356;2022-09-27T00:42:09;10.67;;;9.57;;
10341;SDS011;5216;54.602;18.356;2022-09-27T00:47:10;14.37;;;11.60;;
10341;SDS011;5216;54.602;18.356;2022-09-27T00:49:38;14.33;;;11.93;;
10341;SDS011;5216;54.602;18.356;2022-09-27T00:52:08;13.33;;;11.60;;
10341;SDS011;5216;54.602;18.356;2022-09-27T00:54:37;13.50;;;11.60;;
10341;SDS011;5216;54.602;18.356;2022-09-27T00:57:05;14.30;;;11.13;;
10341;SDS011;5216;54.602;18.356;2022-09-27T00:59:37;13.40;;;10.93;;
10341;SDS011;5216;54.602;18.356;2022-09-27T01:02:04;13.50;;;11.43;;
10341;SDS011;5216;54.602;18.356;2022-09-27T01:04:31;12.13;;;10.07;;
10341;SDS011;5216;54.602;18.356;2022-09-27T01:06:58;12.57;;;10.03;;
10341;SDS011;5216;54.602;18.356;2022-09-27T01:09:25;11.70;;;9.60;;
10341;SDS011;5216;54.602;18.356;2022-09-27T01:28:03;9.40;;;7.43;;
10341;SDS011;5216;54.602;18.356;2022-09-27T01:38:25;9.73;;;7.87;;
10341;SDS011;5216;54.602;18.356;2022-09-27T01:40:58;10.30;;;7.43;;
10341;SDS011;5216;54.602;18.356;2022-09-27T01:43:33;8.80;;;7.77;;
10341;SDS011;5216;54.602;18.356;2022-09-27T01:46:03;10.17;;;7.60;;
10341;SDS011;5216;54.602;18.356;2022-09-27T01:48:34;8.50;;;7.63;;
10341;SDS011;5216;54.602;18.356;2022-09-27T01:51:06;8.90;;;7.90;;
10341;SDS011;5216;54.602;18.356;2022-09-27T01:53:36;9.30;;;8.10;;
10341;SDS011;5216;54.602;18.356;2022-09-27T01:56:03;10.13;;;8.70;;
10341;SDS011;5216;54.602;18.356;2022-09-27T01:58:32;10.60;;;9.20;;
10341;SDS011;5216;54.602;18.356;2022-09-27T02:01:00;11.60;;;8.60;;
10341;SDS011;5216;54.602;18.356;2022-09-27T02:03:29;9.70;;;8.47;;
10341;SDS011;5216;54.602;18.356;2022-09-27T02:06:01;9.83;;;8.57;;
10341;SDS011;5216;54.602;18.356;2022-09-27T02:08:35;12.00;;;8.37;;
10341;SDS011;5216;54.602;18.356;2022-09-27T02:11:04;9.73;;;8.30;;
10341;SDS011;5216;54.602;18.356;2022-09-27T02:13:39;11.27;;;7.57;;
10341;SDS011;5216;54.602;18.356;2022-09-27T02:21:18;9.47;;;8.03;;
10341;SDS011;5216;54.602;18.356;2022-09-27T02:23:47;9.77;;;8.07;;
10341;SDS011;5216;54.602;18.356;2022-09-27T02:26:16;9.53;;;7.87;;
10341;SDS011;5216;54.602;18.356;2022-09-27T02:28:46;11.13;;;8.63;;
10341;SDS011;5216;54.602;18.356;2022-09-27T02:31:15;10.30;;;8.00;;
10341;SDS011;5216;54.602;18.356;2022-09-27T02:36:08;8.87;;;7.63;;
10341;SDS011;5216;54.602;18.356;2022-09-27T02:38:34;8.17;;;6.97;;
10341;SDS011;5216;54.602;18.356;2022-09-27T02:41:01;8.57;;;7.63;;
10341;SDS011;5216;54.602;18.356;2022-09-27T02:43:29;10.60;;;7.63;;
10341;SDS011;5216;54.602;18.356;2022-09-27T02:48:42;7.87;;;7.10;;
10341;SDS011;5216;54.602;18.356;2022-09-27T02:56:21;7.73;;;6.90;;
10341;SDS011;5216;54.602;18.356;2022-09-27T02:58:55;7.57;;;6.87;;
10341;SDS011;5216;54.602;18.356;2022-09-27T03:01:28;8.30;;;6.80;;
10341;SDS011;5216;54.602;18.356;2022-09-27T03:03:58;7.93;;;6.63;;
10341;SDS011;5216;54.602;18.356;2022-09-27T03:06:27;7.50;;;6.80;;
10341;SDS011;5216;54.602;18.356;2022-09-27T03:08:54;6.77;;;6.00;;
10341;SDS011;5216;54.602;18.356;2022-09-27T03:11:22;7.70;;;6.57;;
10341;SDS011;5216;54.602;18.356;2022-09-27T03:13:48;7.47;;;6.70;;
10341;SDS011;5216;54.602;18.356;2022-09-27T03:16:33;7.27;;;6.53;;
10341;SDS011;5216;54.602;18.356;2022-09-27T03:19:00;8.17;;;6.83;;
10341;SDS011;5216;54.602;18.356;2022-09-27T03:21:26;7.53;;;6.00;;
10341;SDS011;5216;54.602;18.356;2022-09-27T03:23:53;7.43;;;6.33;;
10341;SDS011;5216;54.602;18.356;2022-09-27T03:26:19;8.63;;;6.47;;
10341;SDS011;5216;54.602;18.356;2022-09-27T03:28:46;6.30;;;5.70;;
10341;SDS011;5216;54.602;18.356;2022-09-27T03:31:12;6.77;;;6.07;;
10341;SDS011;5216;54.602;18.356;2022-09-27T03:33:40;6.30;;;5.70;;
10341;SDS011;5216;54.602;18.356;2022-09-27T03:36:06;5.93;;;5.33;;
10341;SDS011;5216;54.602;18.356;2022-09-27T03:38:33;6.27;;;5.50;;
10341;SDS011;5216;54.602;18.356;2022-09-27T03:40:59;6.13;;;5.50;;
10341;SDS011;5216;54.602;18.356;2022-09-27T03:43:28;6.23;;;5.53;;
10341;SDS011;5216;54.602;18.356;2022-09-27T03:45:54;6.33;;;4.90;;
10341;SDS011;5216;54.602;18.356;2022-09-27T03:48:20;6.03;;;5.33;;
10341;SDS011;5216;54.602;18.356;2022-09-27T03:50:53;5.13;;;4.70;;
10341;SDS011;5216;54.602;18.356;2022-09-27T03:53:19;5.17;;;4.67;;
10341;SDS011;5216;54.602;18.356;2022-09-27T03:55:47;5.20;;;4.70;;
10341;SDS011;5216;54.602;18.356;2022-09-27T03:58:14;7.97;;;4.70;;
10341;SDS011;5216;54.602;18.356;2022-09-27T04:00:44;5.87;;;4.50;;
10341;SDS011;5216;54.602;18.356;2022-09-27T04:03:11;5.10;;;4.60;;
10341;SDS011;5216;54.602;18.356;2022-09-27T04:05:38;5.87;;;5.10;;
10341;SDS011;5216;54.602;18.356;2022-09-27T04:08:05;9.53;;;8.17;;
10341;SDS011;5216;54.602;18.356;2022-09-27T04:10:33;7.80;;;5.00;;
10341;SDS011;5216;54.602;18.356;2022-09-27T04:12:59;7.67;;;5.67;;
10341;SDS011;5216;54.602;18.356;2022-09-27T04:15:25;7.47;;;5.53;;
10341;SDS011;5216;54.602;18.356;2022-09-27T04:17:54;5.17;;;4.67;;
10341;SDS011;5216;54.602;18.356;2022-09-27T04:20:21;12.20;;;10.20;;
10341;SDS011;5216;54.602;18.356;2022-09-27T04:22:47;16.10;;;13.33;;
10341;SDS011;5216;54.602;18.356;2022-09-27T04:25:14;11.53;;;7.60;;
10341;SDS011;5216;54.602;18.356;2022-09-27T04:27:43;6.57;;;5.97;;
10341;SDS011;5216;54.602;18.356;2022-09-27T04:30:10;6.83;;;5.00;;
10341;SDS011;5216;54.602;18.356;2022-09-27T04:32:41;8.57;;;5.30;;
10341;SDS011;5216;54.602;18.356;2022-09-27T04:35:11;7.00;;;5.00;;
10341;SDS011;5216;54.602;18.356;2022-09-27T04:37:56;7.47;;;4.90;;
10341;SDS011;5216;54.602;18.356;2022-09-27T04:40:23;6.30;;;5.40;;
10341;SDS011;5216;54.602;18.356;2022-09-27T04:42:50;6.13;;;5.20;;
10341;SDS011;5216;54.602;18.356;2022-09-27T04:45:17;6.50;;;5.30;;
10341;SDS011;5216;54.602;18.356;2022-09-27T04:47:44;6.13;;;5.10;;
10341;SDS011;5216;54.602;18.356;2022-09-27T04:50:11;7.37;;;5.23;;
10341;SDS011;5216;54.602;18.356;2022-09-27T04:52:38;8.37;;;5.27;;
10341;SDS011;5216;54.602;18.356;2022-09-27T04:55:09;6.67;;;5.23;;
10341;SDS011;5216;54.602;18.356;2022-09-27T04:57:35;6.87;;;5.20;;
10341;SDS011;5216;54.602;18.356;2022-09-27T05:00:03;8.63;;;6.20;;
10341;SDS011;5216;54.602;18.356;2022-09-27T05:02:30;10.77;;;8.20;;
10341;SDS011;5216;54.602;18.356;2022-09-27T05:04:56;15.83;;;13.07;;
10341;SDS011;5216;54.602;18.356;2022-09-27T05:07:25;9.33;;;8.20;;
10341;SDS011;5216;54.602;18.356;2022-09-27T05:09:52;10.67;;;6.90;;
10341;SDS011;5216;54.602;18.356;2022-09-27T05:12:18;10.13;;;6.17;;
10341;SDS011;5216;54.602;18.356;2022-09-27T05:14:45;8.73;;;6.07;;
10341;SDS011;5216;54.602;18.356;2022-09-27T05:17:14;6.80;;;6.10;;
10341;SDS011;5216;54.602;18.356;2022-09-27T05:19:40;7.47;;;6.70;;
10341;SDS011;5216;54.602;18.356;2022-09-27T05:22:07;8.00;;;6.33;;
10341;SDS011;5216;54.602;18.356;2022-09-27T05:24:34;8.60;;;6.20;;
10341;SDS011;5216;54.602;18.356;2022-09-27T05:27:00;8.73;;;7.13;;
10341;SDS011;5216;54.602;18.356;2022-09-27T05:29:27;8.37;;;5.87;;
10341;SDS011;5216;54.602;18.356;2022-09-27T05:31:54;11.10;;;6.57;;
10341;SDS011;5216;54.602;18.356;2022-09-27T05:34:20;9.97;;;6.60;;
10341;SDS011;5216;54.602;18.356;2022-09-27T05:36:47;7.80;;;6.00;;
10341;SDS011;5216;54.602;18.356;2022-09-27T05:39:14;8.83;;;6.60;;
10341;SDS011;5216;54.602;18.356;2022-09-27T05:41:46;9.97;;;6.80;;
10341;SDS011;5216;54.602;18.356;2022-09-27T05:44:20;9.67;;;6.63;;
10341;SDS011;5216;54.602;18.356;2022-09-27T05:46:47;9.37;;;6.30;;
10341;SDS011;5216;54.602;18.356;2022-09-27T05:49:13;8.03;;;6.63;;
10341;SDS011;5216;54.602;18.356;2022-09-27T05:51:40;7.90;;;6.90;;
10341;SDS011;5216;54.602;18.356;2022-09-27T05:54:06;8.77;;;7.17;;
10341;SDS011;5216;54.602;18.356;2022-09-27T05:56:32;9.43;;;6.70;;
10341;SDS011;5216;54.602;18.356;2022-09-27T05:58:59;9.67;;;6.83;;
10341;SDS011;5216;54.602;18.356;2022-09-27T06:01:25;11.33;;;8.03;;
10341;SDS011;5216;54.602;18.356;2022-09-27T06:03:53;8.10;;;7.30;;
10341;SDS011;5216;54.602;18.356;2022-09-27T06:06:20;8.23;;;6.77;;
10341;SDS011;5216;54.602;18.356;2022-09-27T06:08:48;10.27;;;7.37;;
10341;SDS011;5216;54.602;18.356;2022-09-27T06:11:14;10.83;;;6.83;;
10341;SDS011;5216;54.602;18.356;2022-09-27T06:13:41;12.00;;;7.07;;
10341;SDS011;5216;54.602;18.356;2022-09-27T06:16:09;7.43;;;6.53;;
10341;SDS011;5216;54.602;18.356;2022-09-27T06:18:35;11.93;;;7.77;;
10341;SDS011;5216;54.602;18.356;2022-09-27T06:21:03;9.63;;;7.30;;
10341;SDS011;5216;54.602;18.356;2022-09-27T06:23:29;9.20;;;7.17;;
10341;SDS011;5216;54.602;18.356;2022-09-27T06:26:04;8.47;;;7.67;;
10341;SDS011;5216;54.602;18.356;2022-09-27T06:28:31;10.43;;;7.90;;
10341;SDS011;5216;54.602;18.356;2022-09-27T06:31:00;11.70;;;8.00;;
10341;SDS011;5216;54.602;18.356;2022-09-27T06:33:27;14.90;;;12.40;;
10341;SDS011;5216;54.602;18.356;2022-09-27T06:35:53;10.60;;;8.23;;
10341;SDS011;5216;54.602;18.356;2022-09-27T06:38:20;9.10;;;7.47;;
10341;SDS011;5216;54.602;18.356;2022-09-27T06:40:47;8.87;;;6.67;;
10341;SDS011;5216;54.602;18.356;2022-09-27T06:43:17;8.77;;;6.53;;
10341;SDS011;5216;54.602;18.356;2022-09-27T06:45:45;10.20;;;7.20;;
10341;SDS011;5216;54.602;18.356;2022-09-27T06:48:12;8.33;;;7.13;;
10341;SDS011;5216;54.602;18.356;2022-09-27T06:50:40;8.93;;;6.60;;
10341;SDS011;5216;54.602;18.356;2022-09-27T06:53:07;11.47;;;6.80;;
10341;SDS011;5216;54.602;18.356;2022-09-27T06:55:36;7.97;;;6.60;;
10341;SDS011;5216;54.602;18.356;2022-09-27T06:58:02;7.53;;;5.70;;
10341;SDS011;5216;54.602;18.356;2022-09-27T07:00:48;8.93;;;6.80;;
10341;SDS011;5216;54.602;18.356;2022-09-27T07:03:15;9.87;;;6.97;;
10341;SDS011;5216;54.602;18.356;2022-09-27T07:05:41;8.70;;;7.87;;
10341;SDS011;5216;54.602;18.356;2022-09-27T07:08:11;9.13;;;6.60;;
10341;SDS011;5216;54.602;18.356;2022-09-27T07:10:38;7.83;;;6.97;;
10341;SDS011;5216;54.602;18.356;2022-09-27T07:13:05;8.50;;;7.30;;
10341;SDS011;5216;54.602;18.356;2022-09-27T07:15:33;8.87;;;7.27;;
10341;SDS011;5216;54.602;18.356;2022-09-27T07:18:03;8.80;;;6.77;;
10341;SDS011;5216;54.602;18.356;2022-09-27T07:20:30;9.43;;;7.20;;
10341;SDS011;5216;54.602;18.356;2022-09-27T07:22:57;12.63;;;7.30;;
10341;SDS011;5216;54.602;18.356;2022-09-27T07:25:24;10.03;;;6.43;;
10341;SDS011;5216;54.602;18.356;2022-09-27T07:27:51;14.20;;;6.60;;
10341;SDS011;5216;54.602;18.356;2022-09-27T07:30:18;6.03;;;5.40;;
10341;SDS011;5216;54.602;18.356;2022-09-27T07:32:48;12.80;;;6.50;;
10341;SDS011;5216;54.602;18.356;2022-09-27T07:35:15;9.67;;;6.60;;
10341;SDS011;5216;54.602;18.356;2022-09-27T07:37:41;7.23;;;6.20;;
10341;SDS011;5216;54.602;18.356;2022-09-27T07:40:11;8.53;;;5.83;;
10341;SDS011;5216;54.602;18.356;2022-09-27T07:42:37;6.13;;;4.90;;
10341;SDS011;5216;54.602;18.356;2022-09-27T07:45:05;6.30;;;5.07;;
10341;SDS011;5216;54.602;18.356;2022-09-27T07:47:34;6.20;;;4.67;;
10341;SDS011;5216;54.602;18.356;2022-09-27T07:50:03;7.93;;;4.87;;
10341;SDS011;5216;54.602;18.356;2022-09-27T07:52:30;6.10;;;5.10;;
10341;SDS011;5216;54.602;18.356;2022-09-27T07:55:03;6.00;;;4.97;;
10341;SDS011;5216;54.602;18.356;2022-09-27T07:57:30;7.90;;;5.37;;
10341;SDS011;5216;54.602;18.356;2022-09-27T07:59:56;7.33;;;5.07;;
10341;SDS011;5216;54.602;18.356;2022-09-27T08:02:23;7.00;;;5.10;;
10341;SDS011;5216;54.602;18.356;2022-09-27T08:04:49;6.30;;;4.93;;
10341;SDS011;5216;54.602;18.356;2022-09-27T08:07:16;7.10;;;5.00;;
10341;SDS011;5216;54.602;18.356;2022-09-27T08:09:43;6.87;;;4.73;;
10341;SDS011;5216;54.602;18.356;2022-09-27T08:12:09;7.80;;;5.43;;
10341;SDS011;5216;54.602;18.356;2022-09-27T08:14:36;8.27;;;4.80;;
10341;SDS011;5216;54.602;18.356;2022-09-27T08:17:10;6.27;;;4.63;;
10341;SDS011;5216;54.602;18.356;2022-09-27T08:19:36;6.47;;;4.40;;
10341;SDS011;5216;54.602;18.356;2022-09-27T08:22:03;5.20;;;4.37;;
10341;SDS011;5216;54.602;18.356;2022-09-27T08:24:29;7.90;;;5.23;;
10341;SDS011;5216;54.602;18.356;2022-09-27T08:26:56;10.30;;;7.93;;
10341;SDS011;5216;54.602;18.356;2022-09-27T08:29:22;10.00;;;7.40;;
10341;SDS011;5216;54.602;18.356;2022-09-27T08:31:49;11.33;;;7.67;;
10341;SDS011;5216;54.602;18.356;2022-09-27T08:34:16;9.67;;;6.83;;
10341;SDS011;5216;54.602;18.356;2022-09-27T08:36:43;10.90;;;7.53;;
10341;SDS011;5216;54.602;18.356;2022-09-27T08:39:09;13.27;;;7.90;;
10341;SDS011;5216;54.602;18.356;2022-09-27T08:44:26;11.93;;;8.17;;
10341;SDS011;5216;54.602;18.356;2022-09-27T08:46:57;8.27;;;6.77;;
10341;SDS011;5216;54.602;18.356;2022-09-27T08:49:32;8.37;;;7.53;;
10341;SDS011;5216;54.602;18.356;2022-09-27T08:51:59;12.70;;;8.80;;
10341;SDS011;5216;54.602;18.356;2022-09-27T08:54:29;10.57;;;9.27;;
10341;SDS011;5216;54.602;18.356;2022-09-27T08:57:04;11.30;;;8.83;;
10341;SDS011;5216;54.602;18.356;2022-09-27T08:59:33;13.23;;;8.93;;
10341;SDS011;5216;54.602;18.356;2022-09-27T09:02:01;8.63;;;6.00;;
10341;SDS011;5216;54.602;18.356;2022-09-27T09:04:31;9.30;;;5.90;;
10341;SDS011;5216;54.602;18.356;2022-09-27T09:07:05;6.30;;;5.70;;
10341;SDS011;5216;54.602;18.356;2022-09-27T09:09:52;7.90;;;6.10;;
10341;SDS011;5216;54.602;18.356;2022-09-27T09:12:31;7.03;;;6.10;;
10341;SDS011;5216;54.602;18.356;2022-09-27T09:15:26;6.30;;;5.70;;
10341;SDS011;5216;54.602;18.356;2022-09-27T09:18:04;8.77;;;7.20;;
10341;SDS011;5216;54.602;18.356;2022-09-27T09:20:48;10.53;;;7.13;;
10341;SDS011;5216;54.602;18.356;2022-09-27T09:31:32;8.90;;;7.83;;
10341;SDS011;5216;54.602;18.356;2022-09-27T09:36:32;8.40;;;7.20;;
10341;SDS011;5216;54.602;18.356;2022-09-27T09:39:22;10.43;;;8.00;;
10341;SDS011;5216;54.602;18.356;2022-09-27T09:41:52;8.43;;;6.80;;
10341;SDS011;5216;54.602;18.356;2022-09-27T09:44:23;9.43;;;7.83;;
10341;SDS011;5216;54.602;18.356;2022-09-27T09:46:52;9.47;;;7.90;;
10341;SDS011;5216;54.602;18.356;2022-09-27T09:51:58;8.40;;;7.50;;
10341;SDS011;5216;54.602;18.356;2022-09-27T09:54:37;10.13;;;8.00;;
10341;SDS011;5216;54.602;18.356;2022-09-27T09:57:15;8.53;;;7.70;;
10341;SDS011;5216;54.602;18.356;2022-09-27T10:02:16;8.20;;;7.40;;
10341;SDS011;5216;54.602;18.356;2022-09-27T10:04:44;9.33;;;7.90;;
10341;SDS011;5216;54.602;18.356;2022-09-27T10:07:10;8.60;;;7.70;;
10341;SDS011;5216;54.602;18.356;2022-09-27T10:09:37;8.60;;;7.60;;
10341;SDS011;5216;54.602;18.356;2022-09-27T10:12:04;7.63;;;6.83;;
10341;SDS011;5216;54.602;18.356;2022-09-27T10:14:30;8.80;;;7.10;;
10341;SDS011;5216;54.602;18.356;2022-09-27T10:16:58;8.00;;;7.20;;
10341;SDS011;5216;54.602;18.356;2022-09-27T10:19:30;10.47;;;8.10;;
10341;SDS011;5216;54.602;18.356;2022-09-27T10:22:02;10.90;;;7.43;;
10341;SDS011;5216;54.602;18.356;2022-09-27T10:24:29;8.73;;;7.20;;
10341;SDS011;5216;54.602;18.356;2022-09-27T10:27:15;10.73;;;7.40;;
10341;SDS011;5216;54.602;18.356;2022-09-27T10:29:42;8.90;;;7.23;;
10341;SDS011;5216;54.602;18.356;2022-09-27T10:32:29;8.17;;;6.83;;
10341;SDS011;5216;54.602;18.356;2022-09-27T10:37:48;8.00;;;7.13;;
10341;SDS011;5216;54.602;18.356;2022-09-27T10:40:29;10.97;;;8.13;;
10341;SDS011;5216;54.602;18.356;2022-09-27T10:42:56;7.80;;;7.00;;
10341;SDS011;5216;54.602;18.356;2022-09-27T10:45:27;9.47;;;8.30;;
10341;SDS011;5216;54.602;18.356;2022-09-27T10:47:54;8.33;;;7.53;;
10341;SDS011;5216;54.602;18.356;2022-09-27T10:50:28;9.30;;;8.40;;
10341;SDS011;5216;54.602;18.356;2022-09-27T10:53:16;9.47;;;7.90;;
10341;SDS011;5216;54.602;18.356;2022-09-27T10:55:48;9.30;;;8.40;;
10341;SDS011;5216;54.602;18.356;2022-09-27T10:58:21;11.83;;;8.30;;
10341;SDS011;5216;54.602;18.356;2022-09-27T11:00:53;8.63;;;7.77;;
10341;SDS011;5216;54.602;18.356;2022-09-27T11:03:20;11.27;;;8.77;;
10341;SDS011;5216;54.602;18.356;2022-09-27T11:05:47;11.57;;;9.40;;
10341;SDS011;5216;54.602;18.356;2022-09-27T11:10:43;11.97;;;9.90;;
10341;SDS011;5216;54.602;18.356;2022-09-27T11:18:39;10.60;;;9.00;;
10341;SDS011;5216;54.602;18.356;2022-09-27T11:23:59;15.20;;;11.77;;
10341;SDS011;5216;54.602;18.356;2022-09-27T11:31:50;18.13;;;10.00;;
10341;SDS011;5216;54.602;18.356;2022-09-27T11:42:22;9.20;;;8.00;;
10341;SDS011;5216;54.602;18.356;2022-09-27T11:45:02;7.50;;;6.70;;
10341;SDS011;5216;54.602;18.356;2022-09-27T11:55:48;6.67;;;5.93;;
10341;SDS011;5216;54.602;18.356;2022-09-27T11:58:25;6.87;;;6.17;;
10341;SDS011;5216;54.602;18.356;2022-09-27T12:01:01;7.93;;;6.97;;
10341;SDS011;5216;54.602;18.356;2022-09-27T12:03:39;7.20;;;6.50;;
10341;SDS011;5216;54.602;18.356;2022-09-27T12:06:11;7.33;;;6.30;;
10341;SDS011;5216;54.602;18.356;2022-09-27T12:11:11;7.33;;;6.57;;
10341;SDS011;5216;54.602;18.356;2022-09-27T12:13:42;7.83;;;7.00;;
10341;SDS011;5216;54.602;18.356;2022-09-27T12:16:11;10.73;;;6.50;;
10341;SDS011;5216;54.602;18.356;2022-09-27T12:18:42;7.20;;;6.50;;
10341;SDS011;5216;54.602;18.356;2022-09-27T12:21:16;9.07;;;8.17;;
10341;SDS011;5216;54.602;18.356;2022-09-27T12:23:47;8.90;;;8.00;;
10341;SDS011;5216;54.602;18.356;2022-09-27T12:26:36;9.00;;;8.07;;
10341;SDS011;5216;54.602;18.356;2022-09-27T12:34:23;9.83;;;8.40;;
10341;SDS011;5216;54.602;18.356;2022-09-27T12:37:10;8.47;;;7.67;;
10341;SDS011;5216;54.602;18.356;2022-09-27T12:39:44;9.00;;;8.10;;
10341;SDS011;5216;54.602;18.356;2022-09-27T12:42:19;9.00;;;8.00;;
10341;SDS011;5216;54.602;18.356;2022-09-27T12:44:46;8.63;;;7.73;;
10341;SDS011;5216;54.602;18.356;2022-09-27T12:49:59;9.40;;;7.93;;
10341;SDS011;5216;54.602;18.356;2022-09-27T12:52:30;8.87;;;7.13;;
10341;SDS011;5216;54.602;18.356;2022-09-27T13:08:32;9.30;;;6.97;;
10341;SDS011;5216;54.602;18.356;2022-09-27T13:13:43;12.57;;;7.73;;
10341;SDS011;5216;54.602;18.356;2022-09-27T13:16:10;10.00;;;7.60;;
10341;SDS011;5216;54.602;18.356;2022-09-27T13:21:52;9.90;;;8.90;;
10341;SDS011;5216;54.602;18.356;2022-09-27T13:24:00;9.97;;;8.93;;
10341;SDS011;5216;54.602;18.356;2022-09-27T13:29:00;10.43;;;9.43;;
10341;SDS011;5216;54.602;18.356;2022-09-27T13:37:04;15.70;;;11.17;;
10341;SDS011;5216;54.602;18.356;2022-09-27T13:46:13;12.47;;;11.27;;
10341;SDS011;5216;54.602;18.356;2022-09-27T13:48:43;14.73;;;11.60;;
10341;SDS011;5216;54.602;18.356;2022-09-27T13:51:18;14.20;;;11.47;;
10341;SDS011;5216;54.602;18.356;2022-09-27T13:56:48;13.43;;;10.87;;
10341;SDS011;5216;54.602;18.356;2022-09-27T13:59:36;15.77;;;11.53;;
10341;SDS011;5216;54.602;18.356;2022-09-27T14:04:53;14.13;;;11.70;;
10341;SDS011;5216;54.602;18.356;2022-09-27T14:07:24;13.27;;;11.97;;
10341;SDS011;5216;54.602;18.356;2022-09-27T14:09:52;12.80;;;11.60;;
10341;SDS011;5216;54.602;18.356;2022-09-27T14:12:20;12.93;;;11.73;;
10341;SDS011;5216;54.602;18.356;2022-09-27T14:14:47;12.80;;;11.50;;
10341;SDS011;5216;54.602;18.356;2022-09-27T14:17:14;13.07;;;11.77;;
10341;SDS011;5216;54.602;18.356;2022-09-27T14:19:42;14.33;;;12.87;;
10341;SDS011;5216;54.602;18.356;2022-09-27T14:22:15;13.13;;;11.70;;
10341;SDS011;5216;54.602;18.356;2022-09-27T14:24:44;14.73;;;13.33;;
10341;SDS011;5216;54.602;18.356;2022-09-27T14:27:16;13.53;;;12.10;;
10341;SDS011;5216;54.602;18.356;2022-09-27T14:29:50;12.17;;;10.97;;
10341;SDS011;5216;54.602;18.356;2022-09-27T14:32:25;12.03;;;10.83;;
10341;SDS011;5216;54.602;18.356;2022-09-27T14:38:10;13.90;;;11.80;;
10341;SDS011;5216;54.602;18.356;2022-09-27T14:40:58;13.40;;;12.07;;
10341;SDS011;5216;54.602;18.356;2022-09-27T14:43:25;14.30;;;12.97;;
10341;SDS011;5216;54.602;18.356;2022-09-27T14:45:56;13.20;;;11.97;;
10341;SDS011;5216;54.602;18.356;2022-09-27T14:48:30;14.90;;;13.17;;
10341;SDS011;5216;54.602;18.356;2022-09-27T14:50:58;14.53;;;12.53;;
10341;SDS011;5216;54.602;18.356;2022-09-27T14:53:33;13.97;;;12.30;;
10341;SDS011;5216;54.602;18.356;2022-09-27T14:56:00;13.87;;;12.47;;
10341;SDS011;5216;54.602;18.356;2022-09-27T14:58:27;14.33;;;12.87;;
10341;SDS011;5216;54.602;18.356;2022-09-27T15:01:15;13.97;;;12.57;;
10341;SDS011;5216;54.602;18.356;2022-09-27T15:03:44;19.37;;;12.83;;
10341;SDS011;5216;54.602;18.356;2022-09-27T15:06:10;13.83;;;12.50;;
10341;SDS011;5216;54.602;18.356;2022-09-27T15:08:37;13.07;;;11.87;;
10341;SDS011;5216;54.602;18.356;2022-09-27T15:11:04;13.60;;;12.30;;
10341;SDS011;5216;54.602;18.356;2022-09-27T15:13:35;14.23;;;11.63;;
10341;SDS011;5216;54.602;18.356;2022-09-27T15:16:07;13.40;;;11.13;;
10341;SDS011;5216;54.602;18.356;2022-09-27T15:21:26;14.70;;;10.97;;
10341;SDS011;5216;54.602;18.356;2022-09-27T15:23:53;12.47;;;11.30;;
10341;SDS011;5216;54.602;18.356;2022-09-27T15:28:48;11.40;;;10.17;;
10341;SDS011;5216;54.602;18.356;2022-09-27T15:31:15;12.60;;;11.30;;
10341;SDS011;5216;54.602;18.356;2022-09-27T15:33:44;11.30;;;10.30;;
10341;SDS011;5216;54.602;18.356;2022-09-27T15:36:17;11.47;;;9.93;;
10341;SDS011;5216;54.602;18.356;2022-09-27T15:39:07;15.20;;;11.40;;
10341;SDS011;5216;54.602;18.356;2022-09-27T15:52:46;12.60;;;11.37;;
10341;SDS011;5216;54.602;18.356;2022-09-27T15:55:19;13.43;;;12.07;;
10341;SDS011;5216;54.602;18.356;2022-09-27T15:57:49;12.90;;;11.23;;
10341;SDS011;5216;54.602;18.356;2022-09-27T16:00:17;12.63;;;11.17;;
10341;SDS011;5216;54.602;18.356;2022-09-27T16:02:44;13.37;;;11.90;;
10341;SDS011;5216;54.602;18.356;2022-09-27T16:05:13;14.97;;;11.53;;
10341;SDS011;5216;54.602;18.356;2022-09-27T16:07:46;13.90;;;12.00;;
10341;SDS011;5216;54.602;18.356;2022-09-27T16:10:27;15.77;;;12.50;;
10341;SDS011;5216;54.602;18.356;2022-09-27T16:12:55;14.43;;;12.10;;
10341;SDS011;5216;54.602;18.356;2022-09-27T16:15:22;14.00;;;12.63;;
10341;SDS011;5216;54.602;18.356;2022-09-27T16:17:52;15.33;;;13.73;;
10341;SDS011;5216;54.602;18.356;2022-09-27T16:20:21;16.37;;;14.57;;
10341;SDS011;5216;54.602;18.356;2022-09-27T16:22:53;16.83;;;13.47;;
10341;SDS011;5216;54.602;18.356;2022-09-27T16:25:23;14.87;;;12.80;;
10341;SDS011;5216;54.602;18.356;2022-09-27T16:27:49;13.30;;;12.10;;
10341;SDS011;5216;54.602;18.356;2022-09-27T16:30:17;13.57;;;12.27;;
10341;SDS011;5216;54.602;18.356;2022-09-27T16:32:47;13.53;;;12.23;;
10341;SDS011;5216;54.602;18.356;2022-09-27T16:35:15;13.97;;;12.43;;
10341;SDS011;5216;54.602;18.356;2022-09-27T16:37:42;14.97;;;13.00;;
10341;SDS011;5216;54.602;18.356;2022-09-27T16:40:09;13.70;;;12.37;;
10341;SDS011;5216;54.602;18.356;2022-09-27T16:42:36;14.47;;;13.07;;
10341;SDS011;5216;54.602;18.356;2022-09-27T16:45:03;13.90;;;12.60;;
10341;SDS011;5216;54.602;18.356;2022-09-27T16:47:37;15.30;;;13.57;;
10341;SDS011;5216;54.602;18.356;2022-09-27T16:50:08;16.43;;;13.53;;
10341;SDS011;5216;54.602;18.356;2022-09-27T16:52:53;15.43;;;13.90;;
10341;SDS011;5216;54.602;18.356;2022-09-27T16:55:23;14.27;;;12.77;;
10341;SDS011;5216;54.602;18.356;2022-09-27T16:57:50;13.50;;;11.67;;
10341;SDS011;5216;54.602;18.356;2022-09-27T17:00:17;13.53;;;12.17;;
10341;SDS011;5216;54.602;18.356;2022-09-27T17:02:47;15.73;;;12.57;;
10341;SDS011;5216;54.602;18.356;2022-09-27T17:05:22;13.43;;;11.80;;
10341;SDS011;5216;54.602;18.356;2022-09-27T17:07:50;12.37;;;11.17;;
10341;SDS011;5216;54.602;18.356;2022-09-27T17:10:18;13.90;;;12.50;;
10341;SDS011;5216;54.602;18.356;2022-09-27T17:12:45;13.23;;;11.83;;
10341;SDS011;5216;54.602;18.356;2022-09-27T17:15:16;12.80;;;11.50;;
10341;SDS011;5216;54.602;18.356;2022-09-27T17:17:47;14.63;;;12.07;;
10341;SDS011;5216;54.602;18.356;2022-09-27T17:20:17;13.67;;;12.37;;
10341;SDS011;5216;54.602;18.356;2022-09-27T17:22:44;12.77;;;11.57;;
10341;SDS011;5216;54.602;18.356;2022-09-27T17:25:12;13.17;;;11.80;;
10341;SDS011;5216;54.602;18.356;2022-09-27T17:27:39;13.53;;;12.03;;
10341;SDS011;5216;54.602;18.356;2022-09-27T17:30:06;13.30;;;12.00;;
10341;SDS011;5216;54.602;18.356;2022-09-27T17:32:37;13.17;;;11.87;;
10341;SDS011;5216;54.602;18.356;2022-09-27T17:35:05;13.47;;;12.13;;
10341;SDS011;5216;54.602;18.356;2022-09-27T17:37:39;14.47;;;12.57;;